Time;durP1;ratioP1;P1;durP2;ratioP2;P2;SDS_P1;SDS_P2;PMS_P1;PMS_P2;Temp;Humidity;BMP_temperature;BMP_pressure;BME280_temperature;BME280_humidity;BME280_pressure;Samples;Min_cycle;Max_cycle;Signal;HPM_P1;HPM_P2
2023/03/01 00:00:46;;;;;;;0.10;0.10;;;-0.50;99.90;;;;;;5113720;28;20097;-86
2023/03/01 00:03:12;;;;;;;0.47;0.32;;;-0.50;99.90;;;;;;5096376;28;20487;-86
2023/03/01 00:05:47;;;;;;;0.00;0.00;;;-0.50;98.70;;;;;;5096791;28;20036;-85
2023/03/01 00:08:12;;;;;;;0.05;0.05;;;-0.60;96.70;;;;;;5148073;27;20054;-86
2023/03/01 00:10:38;;;;;;;0.30;0.30;;;-0.60;99.90;;;;;;5113957;28;20043;-86
2023/03/01 00:13:05;;;;;;;0.05;0.05;;;-0.50;99.90;;;;;;5095802;28;20046;-86
2023/03/01 00:15:31;;;;;;;0.00;0.00;;;-0.50;96.40;;;;;;5096219;28;20098;-85
2023/03/01 00:17:57;;;;;;;0.00;0.00;;;-0.50;98.40;;;;;;5096247;28;20079;-85
2023/03/01 00:20:23;;;;;;;0.08;0.08;;;-0.50;98.40;;;;;;5113388;28;20103;-85
2023/03/01 00:22:49;;;;;;;0.00;0.00;;;-0.60;95.30;;;;;;5096790;28;20069;-85
2023/03/01 00:25:15;;;;;;;0.08;0.08;;;-0.70;98.70;;;;;;5096371;28;20127;-86
2023/03/01 00:27:40;;;;;;;0.00;0.00;;;-0.60;99.90;;;;;;5147681;27;20132;-86
2023/03/01 00:30:07;;;;;;;0.20;0.20;;;-0.70;99.30;;;;;;5113410;28;20047;-85
2023/03/01 00:32:33;;;;;;;0.63;0.57;;;-0.60;99.90;;;;;;5099646;28;20142;-85
2023/03/01 00:34:58;;;;;;;0.63;0.08;;;-0.60;96.70;;;;;;5099424;28;20127;-85
2023/03/01 00:37:24;;;;;;;0.00;0.00;;;-0.70;99.90;;;;;;5151100;27;20051;-85
2023/03/01 00:39:50;;;;;;;0.00;0.00;;;-0.70;99.90;;;;;;5099833;28;20051;-85
2023/03/01 00:42:16;;;;;;;0.00;0.00;;;-0.80;98.30;;;;;;5150840;27;20552;-86
2023/03/01 00:44:42;;;;;;;0.00;0.00;;;-0.80;99.90;;;;;;5099749;28;20071;-85
2023/03/01 00:47:08;;;;;;;0.20;0.20;;;-0.80;98.40;;;;;;5117137;28;20082;-85
2023/03/01 00:49:34;;;;;;;1.20;0.15;;;-0.80;99.70;;;;;;5099738;28;20104;-84
2023/03/01 00:51:59;;;;;;;0.10;0.00;;;-0.80;99.90;;;;;;5099247;28;20047;-85
2023/03/01 00:54:25;;;;;;;0.00;0.00;;;-0.80;97.00;;;;;;5133561;27;20051;-84
2023/03/01 00:56:51;;;;;;;0.00;0.00;;;-0.80;99.90;;;;;;5150171;27;20495;-85
2023/03/01 00:59:16;;;;;;;1.55;0.20;;;-0.80;99.90;;;;;;5133429;27;20043;-85
2023/03/01 01:01:42;;;;;;;0.17;0.10;;;-0.80;99.90;;;;;;5100317;28;20064;-85
2023/03/01 01:04:11;;;;;;;0.77;0.28;;;-0.70;99.90;;;;;;5149862;27;20044;-85
2023/03/01 01:06:45;;;;;;;1.67;0.15;;;-0.70;99.90;;;;;;5115999;28;20100;-85
2023/03/01 01:09:18;;;;;;;0.50;0.35;;;-0.70;96.60;;;;;;5116295;28;20048;-85
2023/03/01 01:11:49;;;;;;;0.65;0.30;;;-0.70;99.40;;;;;;5116056;28;20487;-85
2023/03/01 01:14:16;;;;;;;0.77;0.65;;;-0.80;99.90;;;;;;5116095;28;20058;-85
2023/03/01 01:16:42;;;;;;;0.15;0.15;;;-0.80;99.90;;;;;;5099054;28;20391;-85
2023/03/01 01:19:10;;;;;;;2.63;1.30;;;-0.80;99.90;;;;;;5116859;28;20040;-85
2023/03/01 01:21:36;;;;;;;0.00;0.00;;;-0.90;97.80;;;;;;5115599;28;20402;-85
2023/03/01 01:24:03;;;;;;;0.00;0.00;;;-0.90;94.10;;;;;;5150174;27;20044;-85
2023/03/01 01:26:31;;;;;;;1.10;0.60;;;-0.90;99.90;;;;;;5115186;28;20176;-85
2023/03/01 01:28:57;;;;;;;6.75;1.08;;;-0.90;99.90;;;;;;5116506;28;20051;-85
2023/03/01 01:31:24;;;;;;;0.00;0.00;;;-0.90;99.90;;;;;;5115704;28;20060;-85
2023/03/01 01:33:51;;;;;;;0.43;0.43;;;-0.90;98.20;;;;;;5114928;28;20415;-86
2023/03/01 01:36:17;;;;;;;0.80;0.40;;;-0.90;96.10;;;;;;5115588;28;20130;-85
2023/03/01 01:38:42;;;;;;;0.52;0.13;;;-0.90;95.70;;;;;;5132940;27;20136;-85
2023/03/01 01:41:11;;;;;;;0.08;0.08;;;-0.90;93.30;;;;;;5132744;27;20083;-85
2023/03/01 01:43:42;;;;;;;0.00;0.00;;;-1.00;95.40;;;;;;5097706;28;20043;-86
2023/03/01 01:46:33;;;;;;;0.00;0.00;;;-1.00;98.40;;;;;;5115250;28;20043;-85
2023/03/01 01:49:05;;;;;;;0.13;0.08;;;-1.00;99.90;;;;;;5098843;28;20047;-86
2023/03/01 01:51:38;;;;;;;0.00;0.00;;;-1.00;99.00;;;;;;5115298;28;20043;-85
2023/03/01 01:54:18;;;;;;;0.00;0.00;;;-1.10;99.10;;;;;;5098604;28;20089;-86
2023/03/01 01:56:50;;;;;;;0.00;0.00;;;-1.10;99.90;;;;;;5115347;28;20491;-86
2023/03/01 01:59:16;;;;;;;0.00;0.00;;;-1.20;99.90;;;;;;5098508;28;20101;-85
2023/03/01 02:01:43;;;;;;;0.55;0.40;;;-1.20;99.90;;;;;;5098938;28;20047;-85
2023/03/01 02:04:09;;;;;;;1.33;0.10;;;-1.20;99.90;;;;;;5114842;28;20409;-85
2023/03/01 02:06:39;;;;;;;0.52;0.10;;;-1.20;99.90;;;;;;5097888;28;20047;-85
2023/03/01 02:09:10;;;;;;;1.35;0.70;;;-1.20;99.10;;;;;;5115367;28;20383;-85
2023/03/01 02:11:37;;;;;;;0.95;0.95;;;-1.20;97.00;;;;;;5097760;28;20600;-85
2023/03/01 02:14:03;;;;;;;0.20;0.03;;;-1.30;99.90;;;;;;5114583;28;20044;-85
2023/03/01 02:16:30;;;;;;;0.30;0.13;;;-1.30;98.40;;;;;;5115205;27;20048;-85
2023/03/01 02:18:58;;;;;;;0.43;0.35;;;-1.30;92.00;;;;;;5098280;28;20399;-85
2023/03/01 02:21:37;;;;;;;0.00;0.00;;;-1.30;97.50;;;;;;5097886;28;20375;-85
2023/03/01 02:24:19;;;;;;;0.00;0.00;;;-1.40;91.20;;;;;;5149326;27;20039;-85
2023/03/01 02:26:55;;;;;;;0.10;0.10;;;-1.40;92.20;;;;;;5097538;28;20638;-85
2023/03/01 02:29:22;;;;;;;0.00;0.00;;;-1.50;92.80;;;;;;5114603;28;20051;-85
2023/03/01 02:31:50;;;;;;;0.20;0.15;;;-1.50;93.00;;;;;;5114124;28;20047;-85
2023/03/01 02:34:19;;;;;;;0.00;0.00;;;-1.60;92.60;;;;;;5113868;28;20039;-85
2023/03/01 02:36:59;;;;;;;0.15;0.15;;;-1.60;92.50;;;;;;5114464;28;20368;-85
2023/03/01 02:39:33;;;;;;;0.10;0.00;;;-1.60;91.80;;;;;;5114239;28;20051;-85
2023/03/01 02:42:01;;;;;;;0.60;0.55;;;-1.70;98.20;;;;;;5114538;28;20430;-85
2023/03/01 02:44:27;;;;;;;0.00;0.00;;;-1.70;95.60;;;;;;5097554;28;20043;-85
2023/03/01 02:46:55;;;;;;;0.20;0.20;;;-1.70;94.70;;;;;;5131580;27;20130;-85
2023/03/01 02:49:30;;;;;;;0.20;0.20;;;-1.70;96.50;;;;;;5114155;28;20502;-85
2023/03/01 02:51:56;;;;;;;0.00;0.00;;;-1.70;95.90;;;;;;5114262;28;20087;-85
2023/03/01 02:54:38;;;;;;;0.47;0.47;;;-1.70;96.20;;;;;;5097313;28;20058;-85
2023/03/01 02:57:04;;;;;;;1.40;0.73;;;-1.70;95.60;;;;;;5114252;28;20054;-84
2023/03/01 02:59:38;;;;;;;0.40;0.28;;;-1.80;96.10;;;;;;5097234;28;20422;-85
2023/03/01 03:02:35;;;;;;;0.05;0.05;;;-1.80;98.60;;;;;;5114427;28;20044;-85
2023/03/01 03:05:10;;;;;;;0.00;0.00;;;-1.80;97.40;;;;;;5113624;28;20054;-85
2023/03/01 03:07:38;;;;;;;0.00;0.00;;;-1.80;96.70;;;;;;5097062;28;20121;-84
2023/03/01 03:10:07;;;;;;;0.65;0.40;;;-1.80;99.20;;;;;;5114382;28;20078;-85
2023/03/01 03:12:33;;;;;;;0.00;0.00;;;-1.80;99.70;;;;;;5097031;28;20089;-85
2023/03/01 03:14:58;;;;;;;0.15;0.15;;;-1.80;99.90;;;;;;5148185;27;20082;-85
2023/03/01 03:17:24;;;;;;;0.00;0.00;;;-1.90;99.90;;;;;;5105532;28;20047;-85
2023/03/01 03:19:50;;;;;;;0.00;0.00;;;-1.90;99.90;;;;;;5155680;27;20484;-84
2023/03/01 03:22:16;;;;;;;1.00;0.82;;;-1.90;99.90;;;;;;5148418;27;20096;-84
2023/03/01 03:24:41;;;;;;;0.47;0.47;;;-1.90;99.90;;;;;;5130989;27;20116;-84
2023/03/01 03:27:07;;;;;;;0.00;0.00;;;-1.90;99.90;;;;;;5097029;28;20040;-84
2023/03/01 03:29:33;;;;;;;0.00;0.00;;;-1.90;99.70;;;;;;5113566;28;20476;-85
2023/03/01 03:31:59;;;;;;;0.00;0.00;;;-1.90;99.90;;;;;;5113516;28;20111;-86
2023/03/01 03:34:25;;;;;;;0.00;0.00;;;-1.90;99.90;;;;;;5113204;28;20044;-85
2023/03/01 03:36:59;;;;;;;0.22;0.22;;;-1.90;99.90;;;;;;5097008;28;20042;-85
2023/03/01 03:39:34;;;;;;;0.15;0.10;;;-1.90;98.40;;;;;;5113925;28;20083;-85
2023/03/01 03:42:00;;;;;;;1.63;0.32;;;-2.00;95.20;;;;;;5113927;28;20502;-85
2023/03/01 03:44:26;;;;;;;0.00;0.00;;;-2.00;94.00;;;;;;5113986;28;20105;-86
2023/03/01 03:46:52;;;;;;;0.00;0.00;;;-2.10;92.90;;;;;;5113163;28;20047;-86
2023/03/01 03:49:17;;;;;;;0.10;0.10;;;-2.10;92.90;;;;;;5147972;27;20075;-85
2023/03/01 03:51:46;;;;;;;0.28;0.28;;;-2.20;92.90;;;;;;5113630;28;20044;-85
2023/03/01 03:54:12;;;;;;;0.00;0.00;;;-2.20;95.70;;;;;;5113926;28;20051;-85
2023/03/01 03:56:37;;;;;;;1.77;0.20;;;-2.20;94.00;;;;;;5113494;28;20407;-85
2023/03/01 03:59:03;;;;;;;3.40;0.47;;;-2.30;91.90;;;;;;5113609;28;20043;-86
2023/03/01 04:01:29;;;;;;;0.00;0.00;;;-2.30;94.10;;;;;;5096929;28;20082;-86
2023/03/01 04:03:54;;;;;;;0.00;0.00;;;-2.40;96.20;;;;;;5112948;28;20040;-85
2023/03/01 04:06:20;;;;;;;1.13;0.13;;;-2.40;98.20;;;;;;5149729;27;20092;-85
2023/03/01 04:08:46;;;;;;;0.00;0.00;;;-2.50;99.90;;;;;;5117481;28;20043;-86
2023/03/01 04:11:26;;;;;;;0.00;0.00;;;-2.50;97.50;;;;;;5134367;27;20044;-85
2023/03/01 04:13:55;;;;;;;0.15;0.15;;;-2.50;98.80;;;;;;5100334;28;20047;-85
2023/03/01 04:16:20;;;;;;;0.80;0.80;;;-2.50;98.40;;;;;;5100307;28;20077;-86
2023/03/01 04:18:46;;;;;;;0.00;0.00;;;-2.50;98.20;;;;;;5099909;28;20128;-85
2023/03/01 04:21:13;;;;;;;1.15;0.13;;;-2.50;98.70;;;;;;5117485;28;20035;-86
2023/03/01 04:23:40;;;;;;;0.00;0.00;;;-2.40;99.90;;;;;;5116952;28;20052;-85
2023/03/01 04:26:08;;;;;;;0.00;0.00;;;-2.40;99.90;;;;;;5100466;28;20040;-86
2023/03/01 04:28:40;;;;;;;0.52;0.22;;;-2.30;99.50;;;;;;5117275;28;20056;-85
2023/03/01 04:31:15;;;;;;;0.15;0.15;;;-2.30;99.90;;;;;;5116827;28;20511;-86
2023/03/01 04:33:52;;;;;;;0.17;0.17;;;-2.20;99.90;;;;;;5116353;28;20498;-85
2023/03/01 04:36:20;;;;;;;0.10;0.10;;;-2.20;99.90;;;;;;5117681;28;20395;-86
2023/03/01 04:38:47;;;;;;;0.10;0.10;;;-2.20;99.90;;;;;;5099572;28;20097;-85
2023/03/01 04:41:15;;;;;;;2.50;0.80;;;-2.20;99.90;;;;;;5099856;28;20519;-86
2023/03/01 04:43:40;;;;;;;0.00;0.00;;;-2.30;99.90;;;;;;5116981;28;20039;-85
2023/03/01 04:46:09;;;;;;;0.00;0.00;;;-2.30;99.90;;;;;;5082917;28;20130;-85
2023/03/01 04:48:39;;;;;;;0.05;0.05;;;-2.20;99.90;;;;;;5099755;28;20085;-86
2023/03/01 04:51:05;;;;;;;0.20;0.20;;;-2.40;94.00;;;;;;5116702;28;20044;-85
2023/03/01 04:53:32;;;;;;;0.00;0.00;;;-2.40;93.20;;;;;;5100167;28;20056;-85
2023/03/01 04:55:59;;;;;;;0.00;0.00;;;-2.40;93.10;;;;;;5116644;28;20058;-85
2023/03/01 04:58:26;;;;;;;0.20;0.20;;;-2.40;92.60;;;;;;5116681;28;20055;-85
2023/03/01 05:00:53;;;;;;;0.00;0.00;;;-2.50;91.60;;;;;;5099913;28;20043;-84
2023/03/01 05:03:20;;;;;;;0.10;0.10;;;-2.50;90.90;;;;;;5099519;28;20126;-85
2023/03/01 05:05:48;;;;;;;0.28;0.20;;;-2.50;91.40;;;;;;5115726;28;20047;-85
2023/03/01 05:08:17;;;;;;;0.00;0.00;;;-2.40;91.50;;;;;;5116592;28;20051;-85
2023/03/01 05:10:46;;;;;;;0.00;0.00;;;-2.50;91.40;;;;;;5116414;28;20050;-85
2023/03/01 05:13:20;;;;;;;1.73;0.30;;;-2.50;91.50;;;;;;5115561;28;20048;-85
2023/03/01 05:15:57;;;;;;;0.00;0.00;;;-2.50;91.70;;;;;;5116308;28;20112;-85
2023/03/01 05:18:28;;;;;;;0.00;0.00;;;-2.60;91.00;;;;;;5114737;28;20040;-84
2023/03/01 05:21:03;;;;;;;0.45;0.43;;;-2.70;91.10;;;;;;5116207;28;20050;-90
2023/03/01 05:23:30;;;;;;;0.03;0.03;;;-2.70;91.00;;;;;;5116297;28;20078;-88
2023/03/01 05:26:00;;;;;;;0.38;0.38;;;-2.70;91.20;;;;;;5117107;28;20047;-85
2023/03/01 05:28:27;;;;;;;0.60;0.45;;;-2.70;91.60;;;;;;5115708;28;20050;-85
2023/03/01 05:30:54;;;;;;;0.52;0.45;;;-2.70;91.50;;;;;;5115593;28;20047;-85
2023/03/01 05:33:21;;;;;;;0.00;0.00;;;-2.70;90.70;;;;;;5116476;28;20050;-85
2023/03/01 05:35:49;;;;;;;0.30;0.30;;;-2.70;91.20;;;;;;5115864;28;20040;-85
2023/03/01 05:38:15;;;;;;;0.00;0.00;;;-2.70;91.20;;;;;;5118294;28;20473;-86
2023/03/01 05:40:43;;;;;;;0.10;0.00;;;-2.70;91.60;;;;;;5117491;28;20476;-85
2023/03/01 05:43:09;;;;;;;0.00;0.00;;;-2.70;91.50;;;;;;5116446;28;20468;-85
2023/03/01 05:45:37;;;;;;;0.38;0.38;;;-2.70;91.40;;;;;;5115484;28;20048;-85
2023/03/01 05:48:02;;;;;;;0.00;0.00;;;-2.60;91.50;;;;;;5098689;28;20403;-85
2023/03/01 05:50:31;;;;;;;0.35;0.35;;;-2.60;91.60;;;;;;5115780;28;20047;-86
2023/03/01 05:53:00;;;;;;;0.20;0.20;;;-2.60;91.50;;;;;;5115408;28;20483;-85
2023/03/01 05:55:26;;;;;;;0.10;0.00;;;-2.60;91.40;;;;;;5115492;28;20055;-86
2023/03/01 05:57:52;;;;;;;0.10;0.10;;;-2.60;91.50;;;;;;5098839;28;20044;-86
2023/03/01 06:00:22;;;;;;;0.00;0.00;;;-2.70;90.10;;;;;;5114985;28;20039;-85
2023/03/01 06:02:48;;;;;;;0.00;0.00;;;-2.80;90.30;;;;;;5098589;28;20082;-85
2023/03/01 06:05:14;;;;;;;0.00;0.00;;;-2.80;90.80;;;;;;5114894;28;20047;-85
2023/03/01 06:07:41;;;;;;;0.40;0.10;;;-2.80;91.50;;;;;;5114989;28;20050;-86
2023/03/01 06:10:08;;;;;;;0.45;0.05;;;-2.70;93.40;;;;;;5114365;28;20044;-85
2023/03/01 06:12:36;;;;;;;0.00;0.00;;;-2.80;94.50;;;;;;5098135;28;20104;-85
2023/03/01 06:15:03;;;;;;;0.00;0.00;;;-2.80;91.40;;;;;;5115008;28;20553;-85
2023/03/01 06:17:31;;;;;;;0.30;0.30;;;-2.80;91.70;;;;;;5115021;28;20058;-85
2023/03/01 06:19:56;;;;;;;0.00;0.00;;;-2.90;92.20;;;;;;5097841;28;20491;-85
2023/03/01 06:22:22;;;;;;;0.00;0.00;;;-2.90;93.00;;;;;;5098486;28;20043;-85
2023/03/01 06:24:48;;;;;;;0.05;0.05;;;-2.80;94.80;;;;;;5114940;28;20108;-85
2023/03/01 06:27:14;;;;;;;0.00;0.00;;;-2.80;98.90;;;;;;5080986;28;20448;-85
2023/03/01 06:29:39;;;;;;;0.13;0.10;;;-2.80;96.20;;;;;;5114507;28;20536;-84
2023/03/01 06:32:05;;;;;;;0.13;0.13;;;-2.70;97.50;;;;;;5114588;28;20048;-86
2023/03/01 06:34:31;;;;;;;0.00;0.00;;;-2.70;92.90;;;;;;5097983;28;20543;-85
2023/03/01 06:36:57;;;;;;;0.08;0.08;;;-2.60;92.60;;;;;;5081181;28;20040;-85
2023/03/01 06:39:23;;;;;;;0.30;0.30;;;-2.60;93.00;;;;;;5097374;28;20055;-85
2023/03/01 06:41:49;;;;;;;0.65;0.20;;;-2.50;94.10;;;;;;5081407;28;20047;-86
2023/03/01 06:44:14;;;;;;;7.20;0.95;;;-2.50;96.10;;;;;;5097895;28;20047;-85
2023/03/01 06:46:40;;;;;;;0.10;0.10;;;-2.50;91.80;;;;;;5080624;28;20074;-83
2023/03/01 06:49:09;;;;;;;0.00;0.00;;;-2.50;91.40;;;;;;5115150;28;20058;-83
2023/03/01 06:51:36;;;;;;;0.10;0.10;;;-2.40;91.40;;;;;;5097116;28;20415;-83
2023/03/01 06:54:03;;;;;;;1.00;0.75;;;-2.40;89.70;;;;;;5097151;28;20105;-83
2023/03/01 06:56:29;;;;;;;0.00;0.00;;;-2.40;89.80;;;;;;5114372;28;20047;-92
2023/03/01 06:58:55;;;;;;;0.32;0.22;;;-2.40;90.10;;;;;;5097634;28;20508;-89
2023/03/01 07:01:20;;;;;;;0.00;0.00;;;-2.30;90.20;;;;;;5115155;28;20043;-87
2023/03/01 07:03:46;;;;;;;1.83;0.88;;;-2.20;88.90;;;;;;5096571;28;20043;-83
2023/03/01 07:06:12;;;;;;;0.30;0.30;;;-2.20;89.00;;;;;;5096750;28;20036;-84
2023/03/01 07:08:37;;;;;;;0.13;0.13;;;-2.10;88.70;;;;;;5097950;28;20039;-83
2023/03/01 07:11:03;;;;;;;0.85;0.85;;;-2.10;89.60;;;;;;5113875;28;20039;-84
2023/03/01 07:13:29;;;;;;;0.40;0.40;;;-2.20;90.40;;;;;;5113942;28;20051;-83
2023/03/01 07:15:55;;;;;;;0.47;0.43;;;-2.20;90.60;;;;;;5097007;28;20046;-84
2023/03/01 07:18:21;;;;;;;4.75;1.38;;;-2.20;90.60;;;;;;5080090;28;20054;-84
2023/03/01 07:20:47;;;;;;;0.00;0.00;;;-2.10;90.20;;;;;;5113398;28;20047;-84
2023/03/01 07:23:13;;;;;;;0.57;0.40;;;-2.00;91.20;;;;;;5113471;28;20050;-84
2023/03/01 07:25:38;;;;;;;0.00;0.00;;;-2.00;92.30;;;;;;5113873;28;20039;-85
2023/03/01 07:28:04;;;;;;;0.00;0.00;;;-1.90;94.20;;;;;;5080408;28;20443;-84
2023/03/01 07:30:30;;;;;;;0.20;0.20;;;-1.80;93.70;;;;;;5113823;28;20051;-83
2023/03/01 07:32:57;;;;;;;0.73;0.25;;;-1.70;97.10;;;;;;5113122;28;20095;-84
2023/03/01 07:35:25;;;;;;;1.95;0.52;;;-1.60;98.50;;;;;;5113096;28;20480;-84
2023/03/01 07:37:51;;;;;;;0.10;0.10;;;-1.40;99.40;;;;;;5114060;28;20398;-83
2023/03/01 07:40:17;;;;;;;0.40;0.15;;;-1.30;99.70;;;;;;5114043;28;20035;-84
2023/03/01 07:42:42;;;;;;;0.47;0.47;;;-1.20;99.90;;;;;;5100873;28;20055;-84
2023/03/01 07:45:09;;;;;;;5.05;0.55;;;-1.00;95.40;;;;;;5118433;28;20043;-84
2023/03/01 07:47:35;;;;;;;0.00;0.00;;;-0.80;91.80;;;;;;5100881;28;20043;-84
2023/03/01 07:50:01;;;;;;;0.28;0.28;;;-0.50;92.80;;;;;;5117907;28;20043;-84
2023/03/01 07:52:27;;;;;;;0.00;0.00;;;-0.20;91.70;;;;;;5117837;28;20532;-84
2023/03/01 07:54:53;;;;;;;0.45;0.28;;;0.00;99.90;;;;;;5100740;28;20048;-84
2023/03/01 07:57:18;;;;;;;0.43;0.20;;;0.40;99.90;;;;;;5084035;28;20043;-85
2023/03/01 07:59:44;;;;;;;0.38;0.38;;;0.90;97.00;;;;;;5117922;28;20094;-84
2023/03/01 08:02:10;;;;;;;0.10;0.00;;;1.50;96.00;;;;;;5100896;28;20043;-83
2023/03/01 08:04:36;;;;;;;1.50;0.52;;;1.90;99.90;;;;;;5117479;28;20139;-84
2023/03/01 08:07:05;;;;;;;0.15;0.13;;;2.40;99.90;;;;;;5120957;28;20054;-82
2023/03/01 08:09:31;;;;;;;0.00;0.00;;;2.40;99.90;;;;;;5106191;28;20518;-84
2023/03/01 08:11:59;;;;;;;0.05;0.05;;;2.30;99.90;;;;;;5121146;28;20118;-84
2023/03/01 08:14:25;;;;;;;0.77;0.75;;;2.50;99.90;;;;;;5119272;28;20044;-83
2023/03/01 08:16:50;;;;;;;4.20;1.10;;;2.90;99.90;;;;;;5103897;28;20495;-84
2023/03/01 08:19:16;;;;;;;2.05;1.05;;;3.30;99.90;;;;;;5102543;28;20089;-86
2023/03/01 08:21:42;;;;;;;2.83;0.28;;;3.30;99.90;;;;;;5119248;28;20043;-84
2023/03/01 08:24:10;;;;;;;1.17;0.65;;;3.30;99.90;;;;;;5107863;28;20083;-83
2023/03/01 08:26:36;;;;;;;0.43;0.20;;;3.70;99.90;;;;;;5120410;28;20475;-84
2023/03/01 08:29:03;;;;;;;0.30;0.30;;;4.10;99.90;;;;;;5117240;28;20429;-83
2023/03/01 08:31:32;;;;;;;0.73;0.73;;;4.40;99.90;;;;;;5116805;28;20395;-83
2023/03/01 08:34:00;;;;;;;1.60;0.73;;;4.60;99.90;;;;;;5099550;28;20043;-83
2023/03/01 08:36:31;;;;;;;5.25;0.30;;;4.90;99.90;;;;;;5099501;28;20052;-84
2023/03/01 08:38:58;;;;;;;3.03;1.58;;;5.10;99.90;;;;;;5117478;28;20097;-83
2023/03/01 08:41:24;;;;;;;1.45;0.63;;;5.20;99.90;;;;;;5116869;28;20039;-84
2023/03/01 08:43:50;;;;;;;3.50;0.55;;;5.20;99.90;;;;;;5116858;28;20044;-83
2023/03/01 08:46:16;;;;;;;0.47;0.47;;;5.20;99.90;;;;;;5116777;28;20048;-83
2023/03/01 08:48:44;;;;;;;1.00;0.77;;;5.50;99.90;;;;;;5099332;28;20119;-84
2023/03/01 08:51:15;;;;;;;1.75;0.65;;;6.00;99.90;;;;;;5116266;28;20043;-84
2023/03/01 08:53:42;;;;;;;1.65;0.73;;;6.50;99.90;;;;;;5116714;28;20490;-83
2023/03/01 08:56:09;;;;;;;3.50;1.70;;;7.40;99.90;;;;;;5099401;28;20051;-83
2023/03/01 08:58:35;;;;;;;0.90;0.90;;;8.20;99.90;;;;;;5116724;28;20108;-83
2023/03/01 09:01:06;;;;;;;0.20;0.20;;;8.60;99.10;;;;;;5099456;28;20143;-83
2023/03/01 09:03:31;;;;;;;0.32;0.32;;;8.70;97.40;;;;;;5116175;28;20056;-84
2023/03/01 09:06:01;;;;;;;0.60;0.60;;;8.80;98.10;;;;;;5115822;28;20192;-83
2023/03/01 09:08:27;;;;;;;4.22;0.82;;;8.60;98.20;;;;;;5099352;28;20047;-83
2023/03/01 09:10:52;;;;;;;0.65;0.60;;;8.60;97.10;;;;;;5116501;28;20051;-83
2023/03/01 09:13:18;;;;;;;1.05;0.65;;;8.30;97.70;;;;;;5099295;28;20040;-83
2023/03/01 09:15:44;;;;;;;1.05;0.93;;;8.10;97.60;;;;;;5099077;28;20047;-83
2023/03/01 09:18:09;;;;;;;2.65;0.63;;;7.70;97.30;;;;;;5098870;28;20150;-82
2023/03/01 09:20:35;;;;;;;0.77;0.77;;;7.70;97.80;;;;;;5117392;28;20062;-83
2023/03/01 09:23:01;;;;;;;2.53;0.95;;;7.80;98.70;;;;;;5116062;28;20434;-83
2023/03/01 09:25:27;;;;;;;0.47;0.47;;;7.90;98.40;;;;;;5098588;28;20050;-83
2023/03/01 09:27:53;;;;;;;0.80;0.80;;;7.90;98.30;;;;;;5098540;28;20044;-83
2023/03/01 09:30:19;;;;;;;0.22;0.13;;;8.00;98.50;;;;;;5098990;28;20051;-83
2023/03/01 09:32:45;;;;;;;0.38;0.38;;;8.00;98.60;;;;;;5098585;28;20399;-83
2023/03/01 09:35:11;;;;;;;1.20;0.55;;;8.30;98.90;;;;;;5098291;28;20437;-83
2023/03/01 09:37:37;;;;;;;0.22;0.22;;;8.20;97.70;;;;;;5115964;28;20047;-83
2023/03/01 09:40:05;;;;;;;0.55;0.40;;;8.20;97.20;;;;;;5115496;28;20044;-83
2023/03/01 09:42:35;;;;;;;0.52;0.40;;;8.30;97.20;;;;;;5115907;28;20039;-83
2023/03/01 09:45:03;;;;;;;0.10;0.10;;;8.50;95.60;;;;;;5115496;28;20051;-84
2023/03/01 09:47:35;;;;;;;0.90;0.32;;;8.70;96.10;;;;;;5097840;28;20050;-84
2023/03/01 09:50:14;;;;;;;0.63;0.63;;;8.60;96.50;;;;;;5098618;28;20047;-83
2023/03/01 09:53:10;;;;;;;0.00;0.00;;;8.60;93.90;;;;;;5115521;28;20039;-83
2023/03/01 09:55:58;;;;;;;0.20;0.20;;;8.90;93.70;;;;;;5115669;28;20048;-83
2023/03/01 09:58:30;;;;;;;0.57;0.20;;;9.00;94.10;;;;;;5098297;28;20087;-83
2023/03/01 10:01:02;;;;;;;0.00;0.00;;;9.00;93.00;;;;;;5107917;28;20484;-83
2023/03/01 10:03:45;;;;;;;0.10;0.10;;;9.30;93.60;;;;;;5136757;27;20036;-82
2023/03/01 10:06:19;;;;;;;0.85;0.13;;;9.20;92.90;;;;;;5094153;28;20048;-82
2023/03/01 10:08:54;;;;;;;0.00;0.00;;;9.50;92.10;;;;;;5094197;28;20044;-83
2023/03/01 10:11:24;;;;;;;0.30;0.30;;;9.60;91.90;;;;;;5100935;28;20162;-83
2023/03/01 10:13:53;;;;;;;0.00;0.00;;;9.60;91.10;;;;;;5097465;28;20043;-83
2023/03/01 10:16:40;;;;;;;0.00;0.00;;;9.50;89.80;;;;;;5113059;28;20047;-83
2023/03/01 10:19:12;;;;;;;0.00;0.00;;;9.70;87.80;;;;;;5097275;28;20047;-83
2023/03/01 10:21:44;;;;;;;0.13;0.05;;;9.80;86.90;;;;;;5113383;28;20149;-84
2023/03/01 10:24:20;;;;;;;0.00;0.00;;;9.50;84.10;;;;;;5107193;28;20484;-83
2023/03/01 10:26:56;;;;;;;0.00;0.00;;;9.40;82.60;;;;;;5099735;28;20043;-83
2023/03/01 10:30:00;;;;;;;0.00;0.00;;;9.30;82.50;;;;;;5113030;28;20048;-83
2023/03/01 10:32:26;;;;;;;0.10;0.00;;;9.60;73.30;;;;;;5111671;28;20415;-83
2023/03/01 10:34:52;;;;;;;1.08;0.25;;;10.10;72.00;;;;;;5113014;28;20059;-83
2023/03/01 10:37:21;;;;;;;0.00;0.00;;;10.00;64.20;;;;;;5095501;28;20044;-83
2023/03/01 10:40:09;;;;;;;0.00;0.00;;;9.80;62.00;;;;;;5097424;28;20035;-83
2023/03/01 10:42:45;;;;;;;0.00;0.00;;;10.20;33.30;;;;;;5114357;28;20085;-83
2023/03/01 10:45:31;;;;;;;0.22;0.10;;;10.30;32.90;;;;;;5115012;28;20094;-83
2023/03/01 10:48:13;;;;;;;0.20;0.10;;;10.00;24.90;;;;;;5148353;27;20127;-83
2023/03/01 10:50:50;;;;;;;0.20;0.20;;;9.50;18.70;;;;;;5114379;28;20039;-83
2023/03/01 10:53:41;;;;;;;0.65;0.65;;;9.40;18.30;;;;;;5115220;28;20044;-83
2023/03/01 10:56:09;;;;;;;0.28;0.28;;;8.90;17.20;;;;;;5097392;28;20039;-83
2023/03/01 10:58:56;;;;;;;3.88;0.28;;;9.30;17.90;;;;;;5115208;28;20044;-83
2023/03/01 11:01:27;;;;;;;0.10;0.10;;;9.40;20.10;;;;;;5113912;28;20047;-83
2023/03/01 11:04:12;;;;;;;0.63;0.15;;;9.40;19.00;;;;;;5097787;28;20433;-83
2023/03/01 11:06:40;;;;;;;0.65;0.65;;;9.50;21.00;;;;;;5113661;28;20049;-83
2023/03/01 11:09:21;;;;;;;0.00;0.00;;;9.40;20.80;;;;;;5113458;28;20055;-83
2023/03/01 11:11:55;;;;;;;0.00;0.00;;;9.40;19.20;;;;;;5113623;28;20055;-84
2023/03/01 11:14:26;;;;;;;0.43;0.25;;;9.50;17.70;;;;;;5114415;28;20122;-83
2023/03/01 11:17:02;;;;;;;0.00;0.00;;;9.40;21.20;;;;;;5113973;28;20050;-83
2023/03/01 11:19:28;;;;;;;0.00;0.00;;;9.50;20.50;;;;;;5148644;27;20130;-83
2023/03/01 11:22:05;;;;;;;1.65;0.00;;;9.60;21.90;;;;;;5097015;28;20540;-83
2023/03/01 11:24:38;;;;;;;0.00;0.00;;;9.50;22.40;;;;;;5113792;28;20096;-83
2023/03/01 11:27:10;;;;;;;0.00;0.00;;;9.60;27.00;;;;;;5113442;28;20399;-83
2023/03/01 11:29:46;;;;;;;0.00;0.00;;;9.40;25.90;;;;;;5114714;28;20095;-83
2023/03/01 11:32:14;;;;;;;0.17;0.17;;;9.50;25.10;;;;;;5113657;28;20415;-84
2023/03/01 11:34:53;;;;;;;0.10;0.00;;;9.20;25.10;;;;;;5096236;28;20044;-83
2023/03/01 11:37:39;;;;;;;1.17;0.25;;;9.30;25.70;;;;;;5113872;28;20047;-83
2023/03/01 11:40:14;;;;;;;0.25;0.20;;;9.40;27.30;;;;;;5096780;28;20440;-83
2023/03/01 11:43:09;;;;;;;0.08;0.00;;;9.40;26.60;;;;;;5113687;28;20064;-83
2023/03/01 11:46:26;;;;;;;0.22;0.00;;;9.50;22.10;;;;;;5113975;28;20044;-83
2023/03/01 11:49:13;;;;;;;0.10;0.08;;;9.40;23.00;;;;;;5113512;28;20043;-83
2023/03/01 11:52:03;;;;;;;0.00;0.00;;;9.60;22.70;;;;;;5096556;28;20044;-84
2023/03/01 11:55:20;;;;;;;0.50;0.30;;;9.70;22.90;;;;;;5096948;28;20043;-83
2023/03/01 11:58:07;;;;;;;0.43;0.43;;;9.70;22.80;;;;;;5068651;28;20063;-83
2023/03/01 12:01:01;;;;;;;0.10;0.08;;;9.20;23.40;;;;;;5113171;28;20039;-84
2023/03/01 12:03:51;;;;;;;0.00;0.00;;;9.40;23.70;;;;;;5113555;28;20043;-84
2023/03/01 12:06:36;;;;;;;0.10;0.10;;;9.40;23.20;;;;;;5113037;28;20130;-83
2023/03/01 12:09:56;;;;;;;0.00;0.00;;;9.60;23.60;;;;;;5114255;28;20124;-83
2023/03/01 12:12:55;;;;;;;0.13;0.05;;;9.80;23.70;;;;;;5018453;28;20052;-83
2023/03/01 12:15:44;;;;;;;0.35;0.35;;;9.80;23.50;;;;;;5148391;27;20054;-83
2023/03/01 12:18:26;;;;;;;0.00;0.00;;;9.90;21.50;;;;;;5147870;27;20046;-84
2023/03/01 12:21:17;;;;;;;0.70;0.70;;;10.00;20.20;;;;;;5147837;27;20040;-84
2023/03/01 12:23:52;;;;;;;1.55;0.10;;;10.10;18.40;;;;;;5148119;27;20388;-84
2023/03/01 12:26:34;;;;;;;0.10;0.00;;;10.20;18.10;;;;;;5147837;27;20048;-84
2023/03/01 12:29:06;;;;;;;0.00;0.00;;;10.60;17.70;;;;;;5117276;28;20506;-84
2023/03/01 12:31:38;;;;;;;1.27;0.35;;;10.90;17.70;;;;;;5151531;27;20150;-84
2023/03/01 12:34:29;;;;;;;0.03;0.03;;;11.10;16.80;;;;;;5151859;27;20058;-84
2023/03/01 12:37:24;;;;;;;0.75;0.40;;;11.40;13.80;;;;;;5100228;28;20044;-84
2023/03/01 12:40:11;;;;;;;0.57;0.20;;;11.60;15.20;;;;;;5151639;27;20046;-84
2023/03/01 12:42:50;;;;;;;0.52;0.17;;;11.70;12.40;;;;;;5100059;28;20055;-84
2023/03/01 12:45:34;;;;;;;0.10;0.05;;;11.90;20.00;;;;;;5117354;28;20138;-84
2023/03/01 12:48:00;;;;;;;0.28;0.28;;;11.90;17.40;;;;;;5116763;28;20043;-84
2023/03/01 12:50:46;;;;;;;0.10;0.00;;;11.60;13.70;;;;;;5151205;27;20052;-84
2023/03/01 12:53:26;;;;;;;1.00;0.32;;;11.60;1.00;;;;;;5117332;28;20448;-84
2023/03/01 12:55:56;;;;;;;6.13;0.38;;;11.60;1.20;;;;;;5116491;28;20496;-84
2023/03/01 12:58:30;;;;;;;0.20;0.20;;;11.60;1.00;;;;;;5099568;28;20071;-83
2023/03/01 13:01:26;;;;;;;0.20;0.20;;;11.40;1.00;;;;;;5116922;28;20111;-85
2023/03/01 13:04:25;;;;;;;0.00;0.00;;;11.40;1.00;;;;;;5116982;28;20170;-84
2023/03/01 13:07:15;;;;;;;0.00;0.00;;;11.10;1.00;;;;;;5099135;28;20130;-84
2023/03/01 13:09:47;;;;;;;0.05;0.05;;;10.80;1.00;;;;;;5099490;28;20058;-86